This is the latest recevied weather packets stored in our database for station/object WBGG. If no packets are shown the sender has not sent any weather packets the latest 10 day(s).
| Time | Temp. | Humidity | Pressure | Rain* | Wind** | Luminosity | Snow |
|---|---|---|---|---|---|---|---|
| 1777385391 | 25.56° C | 88% | 1009 hPa | - | - | - | - |
| 1777381798 | 25.56° C | 88% | 1009 hPa | - | - | - | - |
| 1777378190 | 25.56° C | 88% | 1008 hPa | - | - | - | - |
| 1777376375 | 26.67° C | 83% | 1008 hPa | - | - | - | - |
| 1777370990 | 28.89° C | 83% | 1006 hPa | - | - | - | - |
| 1777369172 | 28.89° C | 83% | 1006 hPa | - | - | - | - |
| 1777367398 | 28.89° C | 83% | 1005 hPa | - | - | - | - |
| 1777365573 | 30° C | 79% | 1005 hPa | - | - | - | - |
| 1777363790 | 31.67° C | 70% | 1005 hPa | - | - | - | - |
| 1777361977 | 33.89° C | 63% | 1005 hPa | - | - | - | - |
| 1777360190 | 33.89° C | 59% | 1006 hPa | - | - | - | - |
| 1777358372 | 33.89° C | 63% | 1006 hPa | - | - | - | - |
| 1777356590 | 32.78° C | 62% | 1007 hPa | - | - | - | - |
| 1777354774 | 32.78° C | 66% | 1007 hPa | - | - | - | - |
| 1777352997 | 32.78° C | 62% | 1008 hPa | - | - | - | - |
| 1777351172 | 31.67° C | 66% | 1008 hPa | - | - | - | - |
| 1777349389 | 31.67° C | 70% | 1009 hPa | - | - | - | - |
| 1777347573 | 30.56° C | 74% | 1009 hPa | - | - | - | - |
| 1777345789 | 30° C | 79% | 1010 hPa | - | - | - | - |
| 1777343972 | 30° C | 79% | 1010 hPa | - | - | - | - |
| 1777338597 | 26.67° C | 88% | 1010 hPa | - | - | - | - |
* Rain since midnight (hover to see other rain measurements)
** Current wind speed in m/s (hover to see current wind gust speed)